Time;durP1;ratioP1;P1;durP2;ratioP2;P2;SDS_P1;SDS_P2;PMS_P1;PMS_P2;Temp;Humidity;BMP_temperature;BMP_pressure;BME280_temperature;BME280_humidity;BME280_pressure;Samples;Min_cycle;Max_cycle;Signal;HPM_P1;HPM_P2
2022/02/04 00:23:13;;;;;;;3.88;3.08;;;21.40;57.30;;;;;;4951968;28;87286;-84
2022/02/04 00:25:54;;;;;;;4.68;3.35;;;21.40;56.60;;;;;;4952149;28;87480;-84
2022/02/04 00:28:48;;;;;;;4.13;3.15;;;21.40;56.50;;;;;;4949825;28;88360;-83
2022/02/04 00:33:48;;;;;;;4.43;3.28;;;21.40;56.50;;;;;;4952881;28;87209;-83
2022/02/04 00:38:44;;;;;;;4.63;3.40;;;21.40;56.60;;;;;;4952172;28;87843;-82
2022/02/04 00:41:21;;;;;;;4.75;3.42;;;21.30;56.50;;;;;;4949691;28;91222;-82
2022/02/04 00:43:49;;;;;;;3.60;3.20;;;21.30;56.60;;;;;;4952192;28;87884;-83
2022/02/04 00:46:30;;;;;;;4.40;3.28;;;21.30;56.50;;;;;;4952502;28;87748;-83
2022/02/04 00:51:32;;;;;;;4.05;3.20;;;21.30;56.50;;;;;;4950312;28;88797;-83
2022/02/04 00:56:38;;;;;;;4.27;2.97;;;21.20;56.40;;;;;;4951314;28;88190;-83
2022/02/04 01:26:20;;;;;;;3.88;3.17;;;21.20;55.90;;;;;;4952183;28;86997;-83
2022/02/04 01:28:51;;;;;;;4.18;3.35;;;21.20;56.00;;;;;;4950954;28;87618;-84
2022/02/04 01:31:19;;;;;;;3.65;3.20;;;21.20;56.10;;;;;;4951026;28;88422;-83
2022/02/04 01:33:46;;;;;;;4.38;3.63;;;21.20;56.10;;;;;;4951343;28;88286;-83
2022/02/04 01:36:13;;;;;;;3.78;2.90;;;21.20;56.00;;;;;;4950724;28;88120;-82
2022/02/04 01:38:39;;;;;;;5.55;3.35;;;21.20;56.00;;;;;;4951191;28;87808;-83
2022/02/04 01:41:07;;;;;;;4.20;3.10;;;21.20;56.00;;;;;;4951041;28;87298;-82
2022/02/04 01:43:34;;;;;;;3.05;2.75;;;21.20;56.00;;;;;;4951345;28;86992;-83
2022/02/04 01:46:02;;;;;;;3.70;2.63;;;21.10;55.90;;;;;;4950661;28;87927;-83
2022/02/04 01:48:30;;;;;;;3.67;2.92;;;21.10;55.90;;;;;;4950196;28;87387;-84
2022/02/04 01:50:55;;;;;;;3.80;3.13;;;21.10;55.90;;;;;;4950602;28;87393;-83
2022/02/04 01:53:28;;;;;;;4.72;2.88;;;21.10;56.00;;;;;;4951407;28;87738;-83
2022/02/04 01:55:58;;;;;;;3.90;3.20;;;21.20;55.90;;;;;;4951471;28;87951;-83
2022/02/04 01:58:27;;;;;;;4.45;2.88;;;21.10;56.50;;;;;;4950594;28;87877;-84
2022/02/04 02:00:53;;;;;;;3.78;2.88;;;21.10;55.80;;;;;;4950597;28;87613;-83
2022/02/04 02:03:19;;;;;;;3.83;2.72;;;21.10;55.90;;;;;;4951173;28;88582;-82
2022/02/04 02:05:45;;;;;;;3.30;2.80;;;21.10;55.70;;;;;;4948715;28;89920;-83
2022/02/04 02:08:14;;;;;;;3.50;3.00;;;21.10;55.70;;;;;;4952019;28;87687;-82
2022/02/04 02:10:40;;;;;;;3.78;2.97;;;21.10;55.70;;;;;;4951091;28;88727;-82
2022/02/04 02:15:56;;;;;;;3.92;3.20;;;21.10;55.70;;;;;;4951182;28;87111;-82
2022/02/04 02:56:14;;;;;;;3.25;2.63;;;21.00;55.30;;;;;;4949825;28;87631;-82
2022/02/04 02:58:36;;;;;;;4.00;3.25;;;21.00;55.40;;;;;;4949911;28;88461;-83
2022/02/04 03:01:07;;;;;;;3.13;2.80;;;21.00;55.30;;;;;;4948940;28;87463;-82
2022/02/04 03:03:35;;;;;;;3.90;2.92;;;21.00;55.30;;;;;;4949114;28;87990;-85
2022/02/04 03:06:01;;;;;;;4.20;3.03;;;21.00;55.30;;;;;;4947144;28;90207;-84
2022/02/04 03:08:27;;;;;;;4.13;3.15;;;21.00;55.30;;;;;;4949133;28;87789;-84
2022/02/04 03:10:55;;;;;;;3.22;2.92;;;21.00;55.30;;;;;;4949244;28;87707;-83
2022/02/04 03:13:32;;;;;;;3.80;3.10;;;21.00;55.20;;;;;;4949841;28;87597;-84
2022/02/04 03:16:05;;;;;;;3.40;3.10;;;21.00;55.20;;;;;;4949747;28;88923;-86
2022/02/04 03:18:34;;;;;;;4.13;3.47;;;21.00;55.20;;;;;;4949789;28;88685;-84
2022/02/04 03:21:16;;;;;;;;;;;21.00;55.10;;;;;;4949858;28;87587;-83
2022/02/04 03:23:46;;;;;;;3.97;3.00;;;21.00;55.20;;;;;;4950023;28;87334;-85
2022/02/04 03:26:21;;;;;;;3.22;2.92;;;21.00;55.10;;;;;;4947694;28;90513;-86
2022/02/04 03:28:54;;;;;;;3.78;2.83;;;21.00;55.10;;;;;;4950531;28;87722;-82
2022/02/04 03:31:20;;;;;;;3.00;2.70;;;20.90;55.00;;;;;;4949352;28;86933;-85
2022/02/04 03:33:47;;;;;;;3.15;2.72;;;21.00;55.00;;;;;;4957109;28;87396;-84
2022/02/04 03:36:13;;;;;;;3.92;2.92;;;21.00;55.00;;;;;;4956280;28;88194;-86
2022/02/04 03:38:39;;;;;;;2.75;2.55;;;20.90;54.90;;;;;;4956308;28;87312;-85
2022/02/04 03:41:07;;;;;;;2.95;2.67;;;20.90;55.30;;;;;;4956345;28;88884;-84
2022/02/04 03:43:33;;;;;;;3.80;2.75;;;20.90;55.00;;;;;;4957161;28;87723;-86
2022/02/04 03:45:59;;;;;;;3.65;2.85;;;20.90;55.50;;;;;;4956344;28;87761;-85
2022/02/04 03:48:25;;;;;;;3.33;2.70;;;20.90;54.90;;;;;;4956265;28;88180;-85
2022/02/04 03:50:50;;;;;;;2.83;2.63;;;20.90;55.00;;;;;;4955800;28;87897;-85
2022/02/04 03:53:16;;;;;;;3.20;2.90;;;20.90;54.90;;;;;;4954103;28;89521;-85
2022/02/04 03:55:43;;;;;;;3.67;2.97;;;20.90;54.90;;;;;;4956134;28;88087;-85
2022/02/04 03:58:12;;;;;;;3.50;2.90;;;20.90;54.90;;;;;;4956229;28;88262;-84
2022/02/04 04:00:38;;;;;;;3.58;2.83;;;20.90;54.70;;;;;;4955807;28;87434;-82
2022/02/04 04:03:04;;;;;;;3.35;2.60;;;20.90;54.80;;;;;;4955239;28;88006;-83
2022/02/04 04:05:30;;;;;;;3.83;2.97;;;20.90;54.80;;;;;;4954357;28;88696;-86
2022/02/04 04:07:56;;;;;;;3.38;3.08;;;20.90;54.80;;;;;;4970355;28;90795;-84
2022/02/04 04:10:27;;;;;;;3.13;2.83;;;20.90;54.70;;;;;;4954434;28;88114;-84
2022/02/04 04:15:19;;;;;;;3.25;2.90;;;20.90;54.70;;;;;;4954040;28;88191;-84
2022/02/04 04:17:46;;;;;;;3.13;2.83;;;20.90;54.70;;;;;;5063308;22;87557;-80
2022/02/04 04:20:22;;;;;;;3.13;2.65;;;20.80;54.60;;;;;;4973853;28;87762;-80
2022/02/04 04:22:49;;;;;;;3.40;2.95;;;20.80;54.60;;;;;;4975828;28;87673;-82
2022/02/04 04:25:15;;;;;;;3.47;2.80;;;20.90;54.70;;;;;;4975203;28;88223;-82
2022/02/04 04:27:42;;;;;;;3.03;2.65;;;20.80;54.50;;;;;;4975487;28;87996;-81
2022/02/04 04:30:10;;;;;;;3.22;2.83;;;20.80;54.60;;;;;;4974563;28;88094;-82
2022/02/04 04:32:36;;;;;;;3.03;2.70;;;20.80;54.50;;;;;;4975130;28;88457;-82
2022/02/04 04:35:02;;;;;;;3.20;2.85;;;20.80;54.50;;;;;;4975192;28;87874;-82
2022/02/04 04:37:28;;;;;;;3.25;2.60;;;20.80;54.50;;;;;;4990410;28;89721;-83
2022/02/04 04:40:24;;;;;;;3.85;2.90;;;20.80;54.70;;;;;;4974661;28;87504;-83
2022/02/04 05:29:09;;;;;;;3.55;2.78;;;20.70;54.30;;;;;;4970974;28;87427;-85
2022/02/04 05:31:35;;;;;;;2.88;2.47;;;20.70;54.40;;;;;;4971053;28;88288;-84
2022/02/04 05:34:01;;;;;;;2.95;2.65;;;20.70;54.30;;;;;;4971014;28;88219;-84
2022/02/04 05:36:27;;;;;;;2.60;2.40;;;20.70;54.30;;;;;;4970068;28;87493;-83
2022/02/04 05:38:54;;;;;;;3.08;2.72;;;20.70;54.30;;;;;;4969804;28;88964;-82
2022/02/04 05:41:31;;;;;;;2.88;2.60;;;20.70;54.40;;;;;;4970039;28;87453;-84
2022/02/04 05:44:00;;;;;;;2.70;2.50;;;20.70;54.30;;;;;;4970460;28;87591;-84
2022/02/04 05:46:33;;;;;;;3.20;2.90;;;20.70;54.30;;;;;;4970424;28;87481;-85
2022/02/04 05:49:10;;;;;;;2.97;2.67;;;20.70;54.30;;;;;;4970687;28;88836;-84
2022/02/04 05:56:52;;;;;;;3.08;2.67;;;20.70;54.30;;;;;;4969034;28;87504;-80
2022/02/04 06:07:22;;;;;;;2.80;2.55;;;20.60;54.20;;;;;;4970601;28;86306;-84
2022/02/04 06:23:38;;;;;;;2.83;2.63;;;20.60;54.00;;;;;;4970598;28;87846;-84
2022/02/04 06:26:04;;;;;;;3.28;2.63;;;20.60;54.20;;;;;;4970668;28;86957;-84
2022/02/04 06:28:30;;;;;;;3.08;2.55;;;20.60;54.20;;;;;;4968897;28;87801;-84
2022/02/04 06:30:56;;;;;;;2.90;2.60;;;20.60;54.20;;;;;;4969332;28;87726;-84
2022/02/04 06:33:21;;;;;;;2.63;2.42;;;20.60;54.30;;;;;;4970431;28;87553;-84
2022/02/04 06:35:47;;;;;;;2.90;2.50;;;20.60;54.20;;;;;;4970642;28;87763;-84
2022/02/04 06:38:12;;;;;;;2.85;2.40;;;20.60;54.30;;;;;;4970539;28;87787;-82
2022/02/04 06:40:38;;;;;;;2.40;2.20;;;20.60;54.40;;;;;;4969437;28;89484;-83
2022/02/04 06:43:05;;;;;;;2.63;2.42;;;20.60;54.10;;;;;;4969317;28;88005;-81
2022/02/04 06:45:31;;;;;;;2.22;2.03;;;20.60;54.20;;;;;;4969502;28;87434;-84
2022/02/04 06:47:56;;;;;;;2.70;2.50;;;20.60;54.90;;;;;;4968764;28;87845;-84
2022/02/04 06:50:22;;;;;;;3.20;2.65;;;20.60;54.20;;;;;;4970002;28;88896;-83
2022/02/04 06:52:48;;;;;;;2.45;2.10;;;20.60;54.10;;;;;;4969989;28;87222;-82
2022/02/04 06:55:14;;;;;;;2.80;2.42;;;20.50;54.10;;;;;;4969755;28;87648;-85
2022/02/04 06:57:46;;;;;;;2.55;2.35;;;20.50;54.00;;;;;;4969495;28;88783;-85
2022/02/04 07:00:14;;;;;;;2.65;2.40;;;20.60;54.10;;;;;;4968605;28;87667;-83
2022/02/04 07:02:40;;;;;;;2.50;2.30;;;20.50;54.00;;;;;;4970032;28;87852;-85
2022/02/04 07:05:12;;;;;;;2.15;1.98;;;20.50;53.90;;;;;;4969174;28;88609;-83
2022/02/04 07:07:40;;;;;;;2.40;2.20;;;20.50;54.10;;;;;;4968915;28;87314;-85
2022/02/04 07:10:15;;;;;;;2.35;2.15;;;20.50;54.00;;;;;;4969289;28;89019;-85
2022/02/04 07:12:51;;;;;;;3.22;2.45;;;20.50;54.10;;;;;;4967878;28;87968;-83
2022/02/04 07:15:48;;;;;;;3.58;2.15;;;20.60;54.00;;;;;;4967329;28;87816;-83
2022/02/04 07:20:51;;;;;;;2.72;2.53;;;20.60;54.40;;;;;;4968496;28;88320;-82
2022/02/04 07:23:16;;;;;;;5.30;3.00;;;20.60;54.30;;;;;;4969575;28;87249;-83
2022/02/04 07:25:42;;;;;;;2.53;2.33;;;20.70;54.40;;;;;;4972052;28;87013;-84
2022/02/04 07:28:08;;;;;;;2.55;2.28;;;20.70;54.40;;;;;;4969664;28;87709;-84
2022/02/04 07:30:34;;;;;;;4.35;2.75;;;20.80;54.60;;;;;;4968315;28;88409;-84
2022/02/04 07:33:23;;;;;;;3.42;2.50;;;20.80;54.70;;;;;;4969637;28;88498;-83
2022/02/04 07:38:51;;;;;;;11.35;2.65;;;20.90;54.70;;;;;;4971257;28;87814;-83
2022/02/04 07:41:18;;;;;;;2.78;2.22;;;21.00;54.80;;;;;;4970221;28;87649;-82
2022/02/04 07:43:43;;;;;;;2.95;2.28;;;21.00;55.00;;;;;;4984857;28;90654;-83
2022/02/04 07:46:12;;;;;;;13.27;4.13;;;21.00;55.00;;;;;;4963424;28;87827;-81
2022/02/04 07:48:38;;;;;;;5.28;2.42;;;21.00;54.90;;;;;;4967561;28;86914;-83
2022/02/04 07:51:04;;;;;;;5.10;2.85;;;21.00;55.00;;;;;;4967325;28;87158;-84
2022/02/04 07:53:31;;;;;;;8.82;3.63;;;21.00;55.00;;;;;;4967520;28;87937;-83
2022/02/04 07:55:58;;;;;;;8.52;3.30;;;21.00;55.30;;;;;;4967228;28;88229;-82
2022/02/04 07:58:33;;;;;;;8.23;2.80;;;21.00;55.40;;;;;;4967061;28;87375;-82
2022/02/04 08:00:59;;;;;;;10.95;3.25;;;21.00;55.30;;;;;;4967137;28;88591;-84
2022/02/04 08:05:54;;;;;;;13.18;3.78;;;21.00;55.20;;;;;;4965649;28;87811;-82
2022/02/04 08:08:32;;;;;;;8.80;3.10;;;21.00;55.30;;;;;;4967796;28;87603;-81
2022/02/04 08:29:10;;;;;;;10.52;2.97;;;21.00;55.50;;;;;;4970684;28;87232;-81
2022/02/04 08:31:47;;;;;;;8.20;2.88;;;21.00;55.60;;;;;;4971034;28;88429;-82
2022/02/04 08:37:33;;;;;;;9.93;3.70;;;21.00;55.60;;;;;;4971659;28;87738;-81
2022/02/04 08:50:55;;;;;;;12.90;3.50;;;21.10;55.80;;;;;;4969577;28;87730;-80
2022/02/04 08:56:06;;;;;;;13.02;4.07;;;21.10;56.00;;;;;;4970115;28;88098;-83
2022/02/04 08:58:40;;;;;;;12.85;3.55;;;21.10;56.10;;;;;;4969194;28;87055;-81
2022/02/04 09:01:21;;;;;;;13.93;4.15;;;21.00;56.30;;;;;;4970085;28;87450;-81
2022/02/04 09:06:26;;;;;;;32.38;7.72;;;21.00;55.40;;;;;;4969152;28;86830;-81
2022/02/04 09:08:59;;;;;;;22.48;5.82;;;21.10;55.30;;;;;;4971168;28;87161;-81
2022/02/04 09:19:26;;;;;;;26.98;7.60;;;21.00;55.80;;;;;;4970576;28;87545;-81
2022/02/04 09:24:24;;;;;;;34.92;9.00;;;21.10;54.90;;;;;;4970312;28;88339;-81
2022/02/04 09:26:51;;;;;;;40.80;9.43;;;21.00;54.80;;;;;;4970291;28;87616;-81
2022/02/04 09:29:17;;;;;;;31.33;9.23;;;21.00;55.50;;;;;;4963550;28;88201;-81
2022/02/04 09:31:43;;;;;;;36.05;9.27;;;21.10;56.40;;;;;;4970326;28;89426;-82
2022/02/04 09:34:09;;;;;;;33.10;9.90;;;21.00;56.80;;;;;;4970369;28;86984;-80
2022/02/04 09:36:35;;;;;;;36.90;9.80;;;21.00;56.30;;;;;;4970345;28;88502;-81
2022/02/04 09:39:02;;;;;;;34.60;9.95;;;21.00;56.70;;;;;;4970857;28;88733;-81
2022/02/04 09:41:27;;;;;;;34.28;9.48;;;21.10;57.10;;;;;;4968029;28;90462;-80
2022/02/04 09:43:53;;;;;;;34.60;9.00;;;21.00;57.00;;;;;;4968881;28;90450;-82
2022/02/04 09:46:20;;;;;;;36.17;9.52;;;21.00;56.90;;;;;;4970181;28;87931;-81
2022/02/04 09:48:51;;;;;;;31.60;8.88;;;21.10;57.20;;;;;;4968216;28;87187;-81
2022/02/04 09:51:21;;;;;;;26.95;8.52;;;21.10;56.30;;;;;;4969824;28;87989;-81
2022/02/04 10:15:37;;;;;;;25.17;7.63;;;21.10;55.10;;;;;;4954548;28;87982;-81
2022/02/04 10:17:57;;;;;;;22.65;7.75;;;21.10;55.30;;;;;;4968301;28;88165;-79
2022/02/04 10:20:25;;;;;;;23.95;7.78;;;21.10;55.70;;;;;;4969453;28;87684;-80
2022/02/04 10:22:51;;;;;;;28.55;8.23;;;21.10;55.70;;;;;;4969426;28;86627;-81
2022/02/04 10:25:16;;;;;;;28.55;8.85;;;21.10;55.70;;;;;;4969247;28;88418;-80
2022/02/04 10:27:46;;;;;;;24.17;7.65;;;21.10;55.80;;;;;;4969227;28;87173;-80
2022/02/04 10:30:15;;;;;;;23.55;7.47;;;21.10;55.50;;;;;;4967825;28;89111;-80
2022/02/04 10:32:51;;;;;;;22.10;6.90;;;21.10;55.40;;;;;;4969344;28;87858;-81
2022/02/04 10:35:32;;;;;;;19.05;6.82;;;21.10;55.70;;;;;;4967865;28;91356;-80
2022/02/04 10:38:19;;;;;;;17.23;6.57;;;21.10;55.40;;;;;;4968487;28;87517;-81
2022/02/04 10:44:23;;;;;;;22.67;7.00;;;21.10;55.00;;;;;;4964490;28;87756;-81
2022/02/04 10:55:02;;;;;;;20.55;6.30;;;21.10;55.10;;;;;;4968806;28;87898;-80
2022/02/04 11:02:36;;;;;;;16.67;6.05;;;21.10;55.80;;;;;;4970049;28;87409;-80
2022/02/04 11:05:24;;;;;;;19.15;7.15;;;21.10;55.70;;;;;;4968067;28;90087;-80
2022/02/04 11:11:02;;;;;;;18.50;6.65;;;21.10;56.00;;;;;;4968924;28;87901;-80
2022/02/04 11:30:55;;;;;;;14.75;5.90;;;21.10;56.20;;;;;;4943173;28;87916;-81
2022/02/04 11:33:52;;;;;;;17.45;6.38;;;21.10;56.30;;;;;;4969942;28;87537;-81
2022/02/04 11:57:01;;;;;;;12.57;4.57;;;21.10;55.60;;;;;;4971654;28;88222;-81
2022/02/04 11:59:41;;;;;;;15.80;6.10;;;21.10;55.70;;;;;;4972220;28;87891;-81
2022/02/04 12:02:31;;;;;;;13.15;5.82;;;21.10;55.60;;;;;;4971494;28;87346;-80
2022/02/04 12:07:48;;;;;;;13.77;6.28;;;21.20;55.30;;;;;;4972071;28;87442;-82
2022/02/04 12:10:13;;;;;;;15.23;6.07;;;21.20;55.20;;;;;;4972134;28;87445;-83
2022/02/04 12:13:07;;;;;;;13.98;6.03;;;21.30;55.30;;;;;;4973055;28;86755;-81
2022/02/04 12:15:33;;;;;;;15.23;6.13;;;21.30;55.50;;;;;;4972271;28;88194;-81
2022/02/04 12:18:13;;;;;;;12.25;5.60;;;21.30;55.30;;;;;;4972040;28;87694;-81
2022/02/04 12:20:45;;;;;;;12.43;4.47;;;21.30;55.50;;;;;;4970439;28;88469;-81
2022/02/04 12:23:36;;;;;;;15.23;5.28;;;21.20;55.90;;;;;;4971982;28;86878;-82
2022/02/04 12:26:04;;;;;;;14.93;5.13;;;21.30;56.10;;;;;;4971955;28;89004;-81
2022/02/04 12:28:49;;;;;;;11.95;5.35;;;21.30;55.40;;;;;;4986786;28;90282;-81
2022/02/04 12:31:17;;;;;;;17.15;5.68;;;21.30;55.50;;;;;;4970907;28;88283;-82
2022/02/04 12:33:45;;;;;;;8.45;4.18;;;21.30;55.20;;;;;;4971912;28;87420;-81
2022/02/04 12:36:33;;;;;;;10.02;5.40;;;21.20;54.30;;;;;;4969397;28;88105;-81
2022/02/04 12:39:23;;;;;;;12.00;4.72;;;21.20;54.90;;;;;;4972222;28;87806;-81
2022/02/04 12:41:50;;;;;;;9.57;4.70;;;21.20;54.20;;;;;;4970211;28;87553;-81
2022/02/04 12:44:20;;;;;;;9.27;4.43;;;21.20;54.20;;;;;;4966755;28;88463;-81
2022/02/04 12:46:54;;;;;;;11.90;5.05;;;21.20;54.30;;;;;;4941752;28;89982;-80
2022/02/04 12:49:30;;;;;;;13.38;4.85;;;21.20;54.80;;;;;;4967602;28;88162;-80
2022/02/04 12:52:40;;;;;;;10.38;4.70;;;21.20;55.50;;;;;;4969553;28;87824;-80
2022/02/04 12:55:17;;;;;;;10.05;4.50;;;21.20;55.00;;;;;;4970802;28;87329;-80
2022/02/04 12:57:57;;;;;;;8.98;4.35;;;21.20;54.50;;;;;;4971388;28;88697;-81
2022/02/04 13:01:57;;;;;;;11.45;4.45;;;21.20;54.50;;;;;;4973149;28;88052;-80
2022/02/04 13:03:15;;;;;;;9.45;4.38;;;21.20;55.10;;;;;;4972670;28;87708;-80
2022/02/04 13:11:15;;;;;;;8.88;3.83;;;21.30;53.70;;;;;;4972094;28;87698;-80
2022/02/04 13:13:49;;;;;;;6.47;3.60;;;21.30;54.30;;;;;;4971893;28;88483;-81
2022/02/04 13:16:23;;;;;;;8.75;3.42;;;21.20;53.70;;;;;;4972003;28;87450;-82
2022/02/04 13:18:49;;;;;;;8.30;4.00;;;21.30;53.30;;;;;;4972230;28;87338;-82
2022/02/04 13:21:15;;;;;;;8.43;3.80;;;21.20;53.50;;;;;;4971763;28;88016;-81
2022/02/04 13:23:52;;;;;;;8.63;3.55;;;21.20;53.30;;;;;;4972174;28;86938;-79
2022/02/04 13:26:24;;;;;;;8.13;3.72;;;21.30;54.30;;;;;;4971589;28;87389;-81
2022/02/04 13:28:56;;;;;;;7.00;3.80;;;21.20;51.90;;;;;;4971414;28;87500;-82
2022/02/04 13:31:22;;;;;;;7.05;3.40;;;21.30;52.40;;;;;;4971308;28;86681;-82
2022/02/04 13:33:51;;;;;;;8.85;3.97;;;21.20;52.10;;;;;;4971976;28;87580;-83
2022/02/04 13:36:31;;;;;;;10.50;4.03;;;21.30;52.80;;;;;;4971454;28;88282;-83
2022/02/04 13:44:41;;;;;;;6.38;3.47;;;21.20;53.40;;;;;;4971937;28;86999;-82
2022/02/04 13:50:13;;;;;;;7.95;3.50;;;21.30;53.40;;;;;;4970950;28;88257;-81
2022/02/04 13:57:56;;;;;;;5.68;3.45;;;21.30;54.40;;;;;;4971258;28;86857;-82
2022/02/04 14:02:52;;;;;;;8.43;3.47;;;21.30;53.90;;;;;;4970904;28;87789;-83
2022/02/04 14:05:31;;;;;;;9.52;3.30;;;21.30;53.90;;;;;;4970265;28;88658;-80
2022/02/04 14:08:10;;;;;;;7.60;3.13;;;21.30;53.90;;;;;;4970924;28;87317;-82
2022/02/04 14:10:52;;;;;;;5.13;3.08;;;21.30;53.80;;;;;;4970204;28;87800;-80
2022/02/04 14:13:23;;;;;;;7.13;3.25;;;21.30;53.80;;;;;;4970858;28;88357;-83
2022/02/04 14:15:57;;;;;;;6.43;2.85;;;21.30;54.00;;;;;;4970873;28;87878;-82
2022/02/04 14:18:25;;;;;;;5.93;3.25;;;21.30;53.90;;;;;;4969807;28;87727;-82
2022/02/04 14:20:53;;;;;;;7.35;3.50;;;21.30;54.00;;;;;;4967909;28;90261;-83
2022/02/04 14:23:20;;;;;;;7.25;3.33;;;21.30;53.80;;;;;;4970300;28;87329;-82
2022/02/04 14:25:57;;;;;;;7.68;3.50;;;21.30;53.60;;;;;;4970595;28;87467;-81
2022/02/04 15:03:26;;;;;;;16.10;4.53;;;21.50;55.30;;;;;;4969960;28;87478;-80
2022/02/04 15:06:12;;;;;;;11.88;4.20;;;21.50;55.50;;;;;;4969761;28;88205;-84
2022/02/04 15:08:40;;;;;;;12.45;4.32;;;21.50;55.60;;;;;;4971418;28;86890;-83
2022/02/04 15:11:14;;;;;;;14.35;4.03;;;21.50;55.60;;;;;;4969800;28;88222;-83
2022/02/04 15:13:42;;;;;;;13.93;3.78;;;21.50;55.70;;;;;;4972118;28;87934;-82
2022/02/04 15:16:08;;;;;;;11.95;3.80;;;21.60;55.50;;;;;;4971305;28;87228;-81
2022/02/04 15:18:36;;;;;;;14.20;3.88;;;21.60;55.80;;;;;;4967392;28;87905;-82
2022/02/04 15:21:08;;;;;;;11.25;3.80;;;21.70;56.00;;;;;;4967433;28;87546;-82
2022/02/04 15:23:33;;;;;;;18.60;4.43;;;21.70;56.00;;;;;;4962836;28;91771;-81
2022/02/04 15:25:59;;;;;;;10.05;4.38;;;21.60;55.80;;;;;;4968578;28;88841;-81
2022/02/04 15:28:40;;;;;;;13.05;4.10;;;21.60;55.80;;;;;;4970021;28;86956;-82
2022/02/04 15:31:12;;;;;;;10.77;4.05;;;21.60;56.20;;;;;;4968982;28;87308;-81
2022/02/04 15:33:38;;;;;;;14.43;4.45;;;21.60;56.20;;;;;;4970092;28;87496;-82
2022/02/04 15:36:04;;;;;;;12.18;4.00;;;21.60;56.30;;;;;;4967701;28;91030;-83
2022/02/04 15:38:30;;;;;;;15.23;4.03;;;21.50;56.20;;;;;;4967438;28;87901;-83
2022/02/04 15:41:01;;;;;;;13.85;4.47;;;21.60;56.10;;;;;;4967152;28;87271;-83
2022/02/04 15:43:30;;;;;;;11.10;3.60;;;21.50;56.20;;;;;;4967621;28;87745;-81
2022/02/04 15:49:06;;;;;;;15.80;4.07;;;21.60;55.50;;;;;;4966512;28;88221;-81
2022/02/04 15:51:47;;;;;;;9.57;3.53;;;21.60;55.50;;;;;;4967083;28;87432;-83
2022/02/04 15:54:25;;;;;;;14.80;4.22;;;21.60;55.20;;;;;;4967424;28;87868;-81
2022/02/04 15:57:13;;;;;;;11.35;3.85;;;21.60;55.70;;;;;;4966608;28;87741;-81
2022/02/04 16:04:49;;;;;;;9.77;3.25;;;21.60;56.00;;;;;;4966749;28;87868;-82
2022/02/04 16:07:17;;;;;;;12.90;3.67;;;21.70;56.00;;;;;;4966111;28;87700;-80
2022/02/04 16:09:43;;;;;;;11.65;3.17;;;21.70;56.40;;;;;;4964842;28;87533;-81
2022/02/04 16:12:37;;;;;;;10.85;3.38;;;21.70;54.80;;;;;;4964828;28;88722;-81
2022/02/04 16:15:17;;;;;;;10.23;3.08;;;21.70;55.60;;;;;;4967298;28;89453;-82
2022/02/04 16:17:52;;;;;;;11.85;3.20;;;21.70;56.00;;;;;;4968600;28;88519;-81
2022/02/04 16:20:26;;;;;;;7.82;3.17;;;21.70;55.50;;;;;;4972430;28;87009;-83
2022/02/04 16:24:01;;;;;;;8.57;3.30;;;21.70;55.60;;;;;;4970379;28;87412;-83
2022/02/04 16:28:39;;;;;;;11.82;3.22;;;21.70;55.60;;;;;;4973316;28;87910;-83
2022/02/04 16:31:06;;;;;;;9.45;3.05;;;21.70;56.50;;;;;;4971010;28;89068;-82
2022/02/04 16:33:32;;;;;;;11.35;3.28;;;21.70;56.00;;;;;;4971227;28;88130;-81
2022/02/04 16:36:03;;;;;;;7.80;2.70;;;21.70;56.40;;;;;;4971428;28;86983;-83
2022/02/04 16:38:36;;;;;;;9.45;3.00;;;21.70;56.00;;;;;;4973669;28;87766;-83
2022/02/04 16:41:06;;;;;;;9.82;3.42;;;21.70;55.80;;;;;;4974014;28;88777;-83
2022/02/04 16:43:35;;;;;;;11.50;3.05;;;21.70;55.90;;;;;;4976722;28;88244;-82
2022/02/04 16:46:06;;;;;;;9.82;2.83;;;21.70;56.50;;;;;;4976070;28;88027;-82
2022/02/04 16:48:32;;;;;;;10.65;3.20;;;21.70;56.60;;;;;;4974451;28;88020;-84
2022/02/04 16:50:58;;;;;;;19.30;2.78;;;21.70;56.70;;;;;;4973345;28;86958;-84
2022/02/04 16:53:24;;;;;;;8.23;1.90;;;21.70;55.50;;;;;;4974778;28;88056;-83
2022/02/04 16:55:50;;;;;;;10.68;2.55;;;21.70;49.10;;;;;;4976309;28;86954;-82
2022/02/04 16:58:15;;;;;;;11.98;2.83;;;21.70;54.50;;;;;;4975738;28;89440;-83
2022/02/04 17:00:41;;;;;;;9.77;2.75;;;21.70;53.70;;;;;;4976389;28;87444;-84
2022/02/04 17:03:09;;;;;;;7.47;2.40;;;21.70;53.80;;;;;;4976043;28;87400;-83
2022/02/04 17:05:50;;;;;;;10.67;2.40;;;21.70;54.20;;;;;;4972938;28;89659;-83
2022/02/04 17:08:31;;;;;;;8.98;2.60;;;21.70;54.40;;;;;;4974055;28;88202;-84
2022/02/04 17:10:57;;;;;;;9.88;2.40;;;21.70;55.30;;;;;;4974442;28;87382;-82
2022/02/04 17:13:23;;;;;;;5.70;2.17;;;21.70;55.60;;;;;;4974423;28;88757;-85
2022/02/04 17:15:49;;;;;;;10.43;2.90;;;21.70;55.80;;;;;;4974894;28;87783;-83
2022/02/04 17:18:15;;;;;;;10.13;3.08;;;21.70;56.10;;;;;;4974510;28;88388;-81
2022/02/04 17:20:41;;;;;;;5.18;2.42;;;21.70;55.50;;;;;;4976807;28;87680;-84
2022/02/04 17:23:10;;;;;;;14.63;3.00;;;21.80;56.30;;;;;;4975828;28;86921;-83
2022/02/04 17:25:38;;;;;;;13.73;2.63;;;21.80;56.40;;;;;;4974283;28;88688;-82
2022/02/04 17:28:04;;;;;;;9.68;2.45;;;21.80;56.20;;;;;;4972533;28;88041;-83
2022/02/04 17:30:30;;;;;;;7.85;2.55;;;21.70;55.80;;;;;;4971658;28;89203;-82
2022/02/04 17:32:56;;;;;;;9.90;2.25;;;21.80;55.60;;;;;;4975507;28;87736;-83
2022/02/04 17:35:25;;;;;;;5.60;2.28;;;21.80;55.70;;;;;;4974299;28;87643;-82
2022/02/04 17:37:54;;;;;;;9.63;2.33;;;21.80;55.70;;;;;;4972286;28;87979;-82
2022/02/04 17:40:23;;;;;;;8.35;2.75;;;21.80;55.70;;;;;;4969527;28;87922;-81
2022/02/04 17:42:49;;;;;;;8.02;2.20;;;21.80;55.60;;;;;;4971576;28;86995;-82
2022/02/04 17:45:19;;;;;;;6.55;2.40;;;21.80;55.40;;;;;;4972181;28;87799;-82
2022/02/04 17:47:55;;;;;;;7.35;2.05;;;21.80;55.00;;;;;;4972546;28;87240;-82
2022/02/04 17:50:28;;;;;;;4.53;2.40;;;21.80;55.00;;;;;;4972508;28;87381;-82
2022/02/04 17:53:03;;;;;;;8.60;2.42;;;21.80;55.00;;;;;;4971917;28;87044;-83
2022/02/04 17:55:33;;;;;;;9.30;2.80;;;21.80;55.20;;;;;;4970256;28;88030;-82
2022/02/04 18:06:56;;;;;;;5.40;2.10;;;21.80;55.60;;;;;;4967494;28;88500;-83
2022/02/04 18:09:10;;;;;;;6.40;2.50;;;21.80;55.90;;;;;;4967905;28;88412;-82
2022/02/04 18:11:36;;;;;;;6.82;2.47;;;21.80;55.80;;;;;;4966901;28;88026;-83
2022/02/04 18:14:02;;;;;;;7.95;3.03;;;21.80;55.30;;;;;;4969976;28;86256;-81
2022/02/04 18:16:27;;;;;;;6.07;2.65;;;21.80;55.40;;;;;;4968375;28;87911;-81
2022/02/04 18:18:53;;;;;;;7.35;3.00;;;21.80;55.60;;;;;;4967291;28;88377;-82
2022/02/04 18:21:19;;;;;;;4.22;2.25;;;21.80;55.70;;;;;;4967655;28;88476;-83
2022/02/04 18:23:45;;;;;;;8.90;2.47;;;21.80;55.70;;;;;;4966840;28;89833;-80
2022/02/04 18:26:11;;;;;;;10.13;2.85;;;21.80;56.30;;;;;;4968421;28;87517;-81
2022/02/04 18:28:37;;;;;;;4.82;2.35;;;21.80;55.90;;;;;;4968651;28;87730;-81
2022/02/04 18:31:03;;;;;;;7.80;3.03;;;21.80;56.00;;;;;;4968112;28;87909;-82
2022/02/04 18:33:28;;;;;;;7.18;2.97;;;21.80;55.70;;;;;;4967646;28;87648;-82
2022/02/04 18:36:00;;;;;;;7.63;2.95;;;21.90;55.80;;;;;;4965586;28;90418;-82
2022/02/04 18:38:51;;;;;;;8.90;2.58;;;21.80;55.70;;;;;;4967492;28;87341;-81
2022/02/04 18:44:07;;;;;;;8.57;2.88;;;21.80;55.70;;;;;;4967513;28;87383;-82
2022/02/04 18:46:51;;;;;;;6.30;2.78;;;21.80;55.60;;;;;;4967534;28;88982;-82
2022/02/04 18:59:19;;;;;;;8.10;2.90;;;21.80;55.40;;;;;;4967664;28;87892;-81
2022/02/04 19:01:46;;;;;;;7.72;2.70;;;21.80;55.10;;;;;;4966194;28;87914;-82
2022/02/04 19:04:17;;;;;;;5.65;2.75;;;21.80;55.20;;;;;;4967241;28;86725;-81
2022/02/04 19:06:48;;;;;;;4.50;2.10;;;21.80;55.90;;;;;;4965633;28;87796;-82
2022/02/04 19:09:13;;;;;;;7.05;2.55;;;21.80;55.70;;;;;;4967900;28;87467;-82
2022/02/04 19:11:44;;;;;;;6.32;2.30;;;21.80;54.90;;;;;;4966973;28;88602;-81
2022/02/04 19:14:30;;;;;;;5.07;2.50;;;21.80;54.30;;;;;;4966355;28;88204;-83
2022/02/04 19:22:38;;;;;;;5.93;2.15;;;21.80;54.90;;;;;;4945050;28;87436;-83
2022/02/04 19:25:08;;;;;;;6.53;2.60;;;21.80;54.80;;;;;;4963510;28;87479;-82
2022/02/04 19:27:34;;;;;;;5.82;2.30;;;21.80;55.10;;;;;;4967900;28;88085;-83
2022/02/04 19:30:01;;;;;;;5.13;2.38;;;21.80;54.90;;;;;;4966718;28;87391;-82
2022/02/04 19:32:27;;;;;;;5.88;2.35;;;21.80;54.80;;;;;;4966101;28;87765;-81
2022/02/04 19:34:52;;;;;;;5.88;2.55;;;21.80;55.10;;;;;;4967735;28;87507;-82
2022/02/04 19:37:18;;;;;;;4.43;2.15;;;21.80;54.80;;;;;;4967501;28;89047;-82
2022/02/04 19:39:47;;;;;;;7.20;2.70;;;21.80;54.60;;;;;;4967820;28;87415;-82
2022/02/04 19:44:50;;;;;;;5.35;2.65;;;21.90;56.10;;;;;;4975057;28;87494;-83
2022/02/04 19:47:24;;;;;;;5.45;2.00;;;21.90;54.70;;;;;;4972087;28;90392;-80
2022/02/04 19:52:42;;;;;;;6.32;2.03;;;21.90;54.80;;;;;;4971266;28;87495;-82
2022/02/04 20:26:55;;;;;;;4.68;2.15;;;21.90;54.70;;;;;;4975714;28;87483;-80